sensor_id;sensor_type;location;lat;lon;timestamp;P1;durP1;ratioP1;P2;durP2;ratioP2
51724;SDS011;37801;53.224;6.552;2024-03-17T02:29:22;6.68;;;2.80;;
51724;SDS011;37801;53.224;6.552;2024-03-17T02:32:37;6.53;;;2.60;;
51724;SDS011;37801;53.224;6.552;2024-03-17T02:35:44;5.38;;;2.40;;
51724;SDS011;37801;53.224;6.552;2024-03-17T02:38:34;6.65;;;2.75;;
51724;SDS011;37801;53.224;6.552;2024-03-17T02:45:01;6.15;;;2.70;;
51724;SDS011;37801;53.224;6.552;2024-03-17T03:02:00;4.68;;;2.17;;
51724;SDS011;37801;53.224;6.552;2024-03-17T03:05:31;5.10;;;2.50;;
51724;SDS011;37801;53.224;6.552;2024-03-17T04:21:23;2.90;;;2.00;;
51724;SDS011;37801;53.224;6.552;2024-03-17T04:27:33;4.93;;;1.70;;
51724;SDS011;37801;53.224;6.552;2024-03-17T05:20:37;3.95;;;1.95;;
51724;SDS011;37801;53.224;6.552;2024-03-17T05:23:22;5.40;;;2.20;;
51724;SDS011;37801;53.224;6.552;2024-03-17T05:39:28;7.63;;;2.55;;
51724;SDS011;37801;53.224;6.552;2024-03-17T06:30:36;9.63;;;3.50;;
51724;SDS011;37801;53.224;6.552;2024-03-17T07:24:37;11.38;;;3.33;;
51724;SDS011;37801;53.224;6.552;2024-03-17T07:27:29;11.02;;;3.60;;
51724;SDS011;37801;53.224;6.552;2024-03-17T10:18:46;9.25;;;4.53;;
51724;SDS011;37801;53.224;6.552;2024-03-17T10:27:01;14.68;;;5.35;;
51724;SDS011;37801;53.224;6.552;2024-03-17T10:29:40;9.07;;;4.35;;
51724;SDS011;37801;53.224;6.552;2024-03-17T11:14:25;8.82;;;5.20;;
51724;SDS011;37801;53.224;6.552;2024-03-17T11:16:51;12.00;;;5.50;;
51724;SDS011;37801;53.224;6.552;2024-03-17T11:21:54;11.00;;;6.43;;
51724;SDS011;37801;53.224;6.552;2024-03-17T11:24:22;11.00;;;5.95;;
51724;SDS011;37801;53.224;6.552;2024-03-17T11:26:50;12.23;;;5.68;;
51724;SDS011;37801;53.224;6.552;2024-03-17T11:29:26;10.45;;;6.10;;
51724;SDS011;37801;53.224;6.552;2024-03-17T11:31:53;11.05;;;6.57;;
51724;SDS011;37801;53.224;6.552;2024-03-17T11:36:53;11.13;;;6.15;;
51724;SDS011;37801;53.224;6.552;2024-03-17T11:39:20;9.60;;;6.45;;
51724;SDS011;37801;53.224;6.552;2024-03-17T11:42:12;11.77;;;6.60;;
51724;SDS011;37801;53.224;6.552;2024-03-17T11:45:02;9.75;;;6.45;;
51724;SDS011;37801;53.224;6.552;2024-03-17T11:47:46;9.25;;;6.15;;
51724;SDS011;37801;53.224;6.552;2024-03-17T11:50:42;12.23;;;7.38;;
51724;SDS011;37801;53.224;6.552;2024-03-17T11:53:10;12.10;;;6.55;;
51724;SDS011;37801;53.224;6.552;2024-03-17T11:55:37;12.85;;;6.60;;
51724;SDS011;37801;53.224;6.552;2024-03-17T12:01:18;11.43;;;6.93;;
51724;SDS011;37801;53.224;6.552;2024-03-17T12:03:47;12.45;;;6.88;;
51724;SDS011;37801;53.224;6.552;2024-03-17T12:06:23;13.15;;;6.97;;
51724;SDS011;37801;53.224;6.552;2024-03-17T12:09:28;12.88;;;7.70;;
51724;SDS011;37801;53.224;6.552;2024-03-17T12:12:03;15.07;;;7.63;;
51724;SDS011;37801;53.224;6.552;2024-03-17T12:14:32;12.95;;;7.43;;
51724;SDS011;37801;53.224;6.552;2024-03-17T12:17:12;11.02;;;6.93;;
51724;SDS011;37801;53.224;6.552;2024-03-17T12:19:39;13.07;;;8.18;;
51724;SDS011;37801;53.224;6.552;2024-03-17T12:22:20;11.45;;;7.47;;
51724;SDS011;37801;53.224;6.552;2024-03-17T12:24:48;11.20;;;7.28;;
51724;SDS011;37801;53.224;6.552;2024-03-17T12:30:24;11.80;;;7.55;;
51724;SDS011;37801;53.224;6.552;2024-03-17T12:35:52;9.50;;;6.60;;
51724;SDS011;37801;53.224;6.552;2024-03-17T12:45:02;10.23;;;7.30;;
51724;SDS011;37801;53.224;6.552;2024-03-17T12:47:31;9.07;;;6.53;;
51724;SDS011;37801;53.224;6.552;2024-03-17T12:50:08;11.25;;;7.40;;
51724;SDS011;37801;53.224;6.552;2024-03-17T12:59:35;12.23;;;7.60;;
51724;SDS011;37801;53.224;6.552;2024-03-17T13:02:26;13.75;;;8.30;;
51724;SDS011;37801;53.224;6.552;2024-03-17T13:05:17;11.05;;;7.82;;
51724;SDS011;37801;53.224;6.552;2024-03-17T13:07:59;12.20;;;8.38;;
51724;SDS011;37801;53.224;6.552;2024-03-17T13:10:26;15.30;;;9.52;;
51724;SDS011;37801;53.224;6.552;2024-03-17T13:13:12;14.85;;;9.20;;
51724;SDS011;37801;53.224;6.552;2024-03-17T13:15:42;14.55;;;9.15;;
51724;SDS011;37801;53.224;6.552;2024-03-17T13:18:11;14.35;;;9.23;;
51724;SDS011;37801;53.224;6.552;2024-03-17T13:20:41;15.07;;;9.88;;
51724;SDS011;37801;53.224;6.552;2024-03-17T13:23:10;14.18;;;9.50;;
51724;SDS011;37801;53.224;6.552;2024-03-17T13:25:54;11.05;;;8.10;;
51724;SDS011;37801;53.224;6.552;2024-03-17T13:28:22;15.07;;;8.88;;
51724;SDS011;37801;53.224;6.552;2024-03-17T13:30:53;13.18;;;9.18;;
51724;SDS011;37801;53.224;6.552;2024-03-17T13:33:26;12.38;;;9.30;;
51724;SDS011;37801;53.224;6.552;2024-03-17T13:35:58;13.95;;;9.00;;
51724;SDS011;37801;53.224;6.552;2024-03-17T13:43:58;11.00;;;8.70;;
51724;SDS011;37801;53.224;6.552;2024-03-17T14:09:29;11.48;;;8.88;;
51724;SDS011;37801;53.224;6.552;2024-03-17T14:12:16;14.57;;;8.57;;
51724;SDS011;37801;53.224;6.552;2024-03-17T14:15:08;12.95;;;7.80;;
51724;SDS011;37801;53.224;6.552;2024-03-17T14:17:53;13.13;;;8.43;;
51724;SDS011;37801;53.224;6.552;2024-03-17T14:20:31;13.10;;;8.52;;
51724;SDS011;37801;53.224;6.552;2024-03-17T14:40:07;11.23;;;8.00;;
51724;SDS011;37801;53.224;6.552;2024-03-17T14:46:41;13.75;;;8.38;;
51724;SDS011;37801;53.224;6.552;2024-03-17T14:57:13;14.65;;;8.32;;
51724;SDS011;37801;53.224;6.552;2024-03-17T14:59:40;12.77;;;8.70;;
51724;SDS011;37801;53.224;6.552;2024-03-17T15:04:58;14.27;;;8.13;;
51724;SDS011;37801;53.224;6.552;2024-03-17T15:07:32;11.45;;;7.88;;
51724;SDS011;37801;53.224;6.552;2024-03-17T15:10:06;14.30;;;8.30;;
51724;SDS011;37801;53.224;6.552;2024-03-17T15:13:00;13.32;;;8.70;;
51724;SDS011;37801;53.224;6.552;2024-03-17T15:15:31;11.70;;;7.28;;
51724;SDS011;37801;53.224;6.552;2024-03-17T15:18:15;12.80;;;7.95;;
51724;SDS011;37801;53.224;6.552;2024-03-17T15:26:42;11.88;;;8.00;;
51724;SDS011;37801;53.224;6.552;2024-03-17T15:29:14;11.40;;;7.55;;
51724;SDS011;37801;53.224;6.552;2024-03-17T15:34:24;14.85;;;9.05;;
51724;SDS011;37801;53.224;6.552;2024-03-17T15:36:53;11.07;;;7.47;;
51724;SDS011;37801;53.224;6.552;2024-03-17T15:39:27;11.10;;;7.25;;
51724;SDS011;37801;53.224;6.552;2024-03-17T15:42:21;10.25;;;7.55;;
51724;SDS011;37801;53.224;6.552;2024-03-17T15:45:29;12.27;;;8.18;;
51724;SDS011;37801;53.224;6.552;2024-03-17T15:47:58;11.18;;;7.78;;
51724;SDS011;37801;53.224;6.552;2024-03-17T15:53:06;10.18;;;7.38;;
51724;SDS011;37801;53.224;6.552;2024-03-17T15:55:39;15.10;;;9.30;;
51724;SDS011;37801;53.224;6.552;2024-03-17T16:01:27;14.35;;;9.18;;
51724;SDS011;37801;53.224;6.552;2024-03-17T16:04:11;11.90;;;8.45;;
51724;SDS011;37801;53.224;6.552;2024-03-17T16:09:56;12.80;;;8.60;;
51724;SDS011;37801;53.224;6.552;2024-03-17T16:18:49;14.05;;;9.00;;
51724;SDS011;37801;53.224;6.552;2024-03-17T16:24:57;12.20;;;8.93;;
51724;SDS011;37801;53.224;6.552;2024-03-17T16:27:38;14.13;;;9.25;;
51724;SDS011;37801;53.224;6.552;2024-03-17T16:33:34;11.55;;;8.30;;
51724;SDS011;37801;53.224;6.552;2024-03-17T16:39:25;11.85;;;8.43;;
51724;SDS011;37801;53.224;6.552;2024-03-17T16:48:25;13.48;;;9.38;;
51724;SDS011;37801;53.224;6.552;2024-03-17T17:31:12;16.60;;;10.10;;
51724;SDS011;37801;53.224;6.552;2024-03-17T17:33:42;13.70;;;9.45;;
51724;SDS011;37801;53.224;6.552;2024-03-17T17:36:10;14.48;;;9.77;;
51724;SDS011;37801;53.224;6.552;2024-03-17T17:38:41;17.65;;;11.25;;
51724;SDS011;37801;53.224;6.552;2024-03-17T17:41:34;16.77;;;10.10;;
51724;SDS011;37801;53.224;6.552;2024-03-17T17:56:15;13.15;;;8.73;;
51724;SDS011;37801;53.224;6.552;2024-03-17T17:58:42;17.00;;;10.48;;
51724;SDS011;37801;53.224;6.552;2024-03-17T18:01:12;16.73;;;11.00;;
51724;SDS011;37801;53.224;6.552;2024-03-17T18:03:39;16.38;;;10.50;;
51724;SDS011;37801;53.224;6.552;2024-03-17T18:06:07;15.77;;;9.77;;
51724;SDS011;37801;53.224;6.552;2024-03-17T18:08:36;18.55;;;10.90;;
51724;SDS011;37801;53.224;6.552;2024-03-17T18:11:03;13.82;;;10.13;;
51724;SDS011;37801;53.224;6.552;2024-03-17T18:13:31;14.60;;;10.10;;
51724;SDS011;37801;53.224;6.552;2024-03-17T18:16:01;16.50;;;11.07;;
51724;SDS011;37801;53.224;6.552;2024-03-17T18:18:28;17.23;;;10.93;;
51724;SDS011;37801;53.224;6.552;2024-03-17T18:20:59;17.40;;;11.50;;
51724;SDS011;37801;53.224;6.552;2024-03-17T18:23:29;15.50;;;10.68;;
51724;SDS011;37801;53.224;6.552;2024-03-17T18:25:56;15.82;;;10.70;;
51724;SDS011;37801;53.224;6.552;2024-03-17T18:28:22;16.17;;;11.13;;
51724;SDS011;37801;53.224;6.552;2024-03-17T18:30:52;19.90;;;11.43;;
51724;SDS011;37801;53.224;6.552;2024-03-17T18:33:19;18.48;;;11.13;;
51724;SDS011;37801;53.224;6.552;2024-03-17T18:35:46;20.70;;;11.93;;
51724;SDS011;37801;53.224;6.552;2024-03-17T18:38:14;17.40;;;10.85;;
51724;SDS011;37801;53.224;6.552;2024-03-17T18:40:41;19.75;;;11.57;;
51724;SDS011;37801;53.224;6.552;2024-03-17T18:43:08;17.20;;;11.55;;
51724;SDS011;37801;53.224;6.552;2024-03-17T18:45:34;19.13;;;10.82;;
51724;SDS011;37801;53.224;6.552;2024-03-17T18:48:01;17.13;;;11.27;;
51724;SDS011;37801;53.224;6.552;2024-03-17T18:50:27;17.38;;;10.30;;
51724;SDS011;37801;53.224;6.552;2024-03-17T18:52:54;18.05;;;10.90;;
51724;SDS011;37801;53.224;6.552;2024-03-17T18:55:21;16.60;;;11.35;;
51724;SDS011;37801;53.224;6.552;2024-03-17T18:57:51;15.15;;;10.82;;
51724;SDS011;37801;53.224;6.552;2024-03-17T19:00:18;21.88;;;12.60;;
51724;SDS011;37801;53.224;6.552;2024-03-17T19:02:48;15.27;;;11.20;;
51724;SDS011;37801;53.224;6.552;2024-03-17T19:05:14;17.58;;;11.80;;
51724;SDS011;37801;53.224;6.552;2024-03-17T19:07:41;16.15;;;11.45;;
51724;SDS011;37801;53.224;6.552;2024-03-17T19:10:08;16.13;;;11.35;;
51724;SDS011;37801;53.224;6.552;2024-03-17T19:12:35;19.17;;;12.02;;
51724;SDS011;37801;53.224;6.552;2024-03-17T19:15:02;13.85;;;10.32;;
51724;SDS011;37801;53.224;6.552;2024-03-17T19:17:32;16.73;;;12.00;;
51724;SDS011;37801;53.224;6.552;2024-03-17T19:20:03;19.05;;;12.27;;
51724;SDS011;37801;53.224;6.552;2024-03-17T19:22:43;17.17;;;11.27;;
51724;SDS011;37801;53.224;6.552;2024-03-17T19:25:10;19.67;;;10.82;;
51724;SDS011;37801;53.224;6.552;2024-03-17T19:27:37;17.98;;;11.90;;
51724;SDS011;37801;53.224;6.552;2024-03-17T19:30:07;19.40;;;11.38;;
51724;SDS011;37801;53.224;6.552;2024-03-17T19:32:34;15.27;;;11.20;;
51724;SDS011;37801;53.224;6.552;2024-03-17T19:35:02;19.17;;;11.10;;
51724;SDS011;37801;53.224;6.552;2024-03-17T19:37:29;17.25;;;12.30;;
51724;SDS011;37801;53.224;6.552;2024-03-17T19:39:59;20.77;;;11.88;;
51724;SDS011;37801;53.224;6.552;2024-03-17T19:42:25;16.83;;;11.85;;
51724;SDS011;37801;53.224;6.552;2024-03-17T19:44:55;20.15;;;12.73;;
51724;SDS011;37801;53.224;6.552;2024-03-17T19:47:22;18.25;;;11.25;;
51724;SDS011;37801;53.224;6.552;2024-03-17T19:49:58;18.35;;;12.93;;
51724;SDS011;37801;53.224;6.552;2024-03-17T19:52:25;17.08;;;11.82;;
51724;SDS011;37801;53.224;6.552;2024-03-17T19:54:54;16.98;;;11.70;;
51724;SDS011;37801;53.224;6.552;2024-03-17T19:57:21;18.42;;;11.75;;
51724;SDS011;37801;53.224;6.552;2024-03-17T19:59:50;18.30;;;12.52;;
51724;SDS011;37801;53.224;6.552;2024-03-17T20:02:17;20.48;;;13.30;;
51724;SDS011;37801;53.224;6.552;2024-03-17T20:04:47;18.75;;;11.75;;
51724;SDS011;37801;53.224;6.552;2024-03-17T20:07:19;17.23;;;12.10;;
51724;SDS011;37801;53.224;6.552;2024-03-17T20:09:45;17.42;;;11.52;;
51724;SDS011;37801;53.224;6.552;2024-03-17T20:12:15;18.25;;;12.70;;
51724;SDS011;37801;53.224;6.552;2024-03-17T20:14:42;18.50;;;12.70;;
51724;SDS011;37801;53.224;6.552;2024-03-17T20:17:16;19.98;;;12.65;;
51724;SDS011;37801;53.224;6.552;2024-03-17T20:19:43;19.80;;;13.13;;
51724;SDS011;37801;53.224;6.552;2024-03-17T20:22:09;20.85;;;13.02;;
51724;SDS011;37801;53.224;6.552;2024-03-17T20:24:36;17.45;;;12.60;;
51724;SDS011;37801;53.224;6.552;2024-03-17T20:27:06;17.92;;;13.00;;
51724;SDS011;37801;53.224;6.552;2024-03-17T20:29:36;20.83;;;12.77;;
51724;SDS011;37801;53.224;6.552;2024-03-17T20:32:02;21.88;;;13.80;;
51724;SDS011;37801;53.224;6.552;2024-03-17T20:34:29;24.55;;;13.98;;
51724;SDS011;37801;53.224;6.552;2024-03-17T20:36:59;21.08;;;13.45;;
51724;SDS011;37801;53.224;6.552;2024-03-17T20:39:27;23.85;;;15.20;;
51724;SDS011;37801;53.224;6.552;2024-03-17T20:41:56;24.80;;;14.18;;
51724;SDS011;37801;53.224;6.552;2024-03-17T20:44:23;26.13;;;16.33;;
51724;SDS011;37801;53.224;6.552;2024-03-17T20:46:52;24.88;;;14.77;;
51724;SDS011;37801;53.224;6.552;2024-03-17T20:49:19;23.85;;;15.57;;
51724;SDS011;37801;53.224;6.552;2024-03-17T20:51:48;21.20;;;14.70;;
51724;SDS011;37801;53.224;6.552;2024-03-17T20:54:15;21.60;;;13.73;;
51724;SDS011;37801;53.224;6.552;2024-03-17T20:56:42;18.63;;;14.13;;
51724;SDS011;37801;53.224;6.552;2024-03-17T20:59:09;25.92;;;14.75;;
51724;SDS011;37801;53.224;6.552;2024-03-17T21:01:40;21.75;;;14.98;;
51724;SDS011;37801;53.224;6.552;2024-03-17T21:04:06;23.10;;;15.07;;
51724;SDS011;37801;53.224;6.552;2024-03-17T21:06:36;25.00;;;15.48;;
51724;SDS011;37801;53.224;6.552;2024-03-17T21:09:06;25.52;;;15.73;;
51724;SDS011;37801;53.224;6.552;2024-03-17T21:11:38;24.13;;;14.70;;
51724;SDS011;37801;53.224;6.552;2024-03-17T21:14:04;22.45;;;14.68;;
51724;SDS011;37801;53.224;6.552;2024-03-17T21:16:41;23.95;;;15.60;;
51724;SDS011;37801;53.224;6.552;2024-03-17T21:19:30;21.75;;;14.70;;
51724;SDS011;37801;53.224;6.552;2024-03-17T21:22:16;23.95;;;15.18;;
51724;SDS011;37801;53.224;6.552;2024-03-17T21:24:43;23.95;;;15.50;;
51724;SDS011;37801;53.224;6.552;2024-03-17T21:27:10;23.88;;;15.15;;
51724;SDS011;37801;53.224;6.552;2024-03-17T21:29:41;20.65;;;14.27;;
51724;SDS011;37801;53.224;6.552;2024-03-17T21:32:14;23.27;;;15.32;;
51724;SDS011;37801;53.224;6.552;2024-03-17T21:34:46;23.42;;;14.77;;
51724;SDS011;37801;53.224;6.552;2024-03-17T21:37:13;21.00;;;13.82;;
51724;SDS011;37801;53.224;6.552;2024-03-17T21:39:39;23.30;;;14.63;;
51724;SDS011;37801;53.224;6.552;2024-03-17T21:42:05;25.90;;;15.48;;
51724;SDS011;37801;53.224;6.552;2024-03-17T21:44:31;21.05;;;14.15;;
51724;SDS011;37801;53.224;6.552;2024-03-17T21:47:00;25.15;;;14.98;;
51724;SDS011;37801;53.224;6.552;2024-03-17T21:49:28;21.45;;;14.60;;
51724;SDS011;37801;53.224;6.552;2024-03-17T21:51:57;23.10;;;14.50;;
51724;SDS011;37801;53.224;6.552;2024-03-17T21:54:40;24.45;;;15.00;;
51724;SDS011;37801;53.224;6.552;2024-03-17T21:57:14;24.05;;;14.60;;
51724;SDS011;37801;53.224;6.552;2024-03-17T22:03:57;20.98;;;13.57;;
51724;SDS011;37801;53.224;6.552;2024-03-17T22:14:19;20.55;;;13.85;;
51724;SDS011;37801;53.224;6.552;2024-03-17T22:23:42;20.20;;;13.63;;
51724;SDS011;37801;53.224;6.552;2024-03-17T22:26:35;20.60;;;13.65;;
51724;SDS011;37801;53.224;6.552;2024-03-17T22:39:30;20.83;;;13.07;;
51724;SDS011;37801;53.224;6.552;2024-03-17T22:49:18;20.33;;;13.05;;
51724;SDS011;37801;53.224;6.552;2024-03-17T22:54:58;21.50;;;12.63;;
51724;SDS011;37801;53.224;6.552;2024-03-17T23:04:10;21.35;;;12.65;;
51724;SDS011;37801;53.224;6.552;2024-03-17T23:07:06;18.67;;;12.52;;
51724;SDS011;37801;53.224;6.552;2024-03-17T23:09:44;19.35;;;12.70;;
51724;SDS011;37801;53.224;6.552;2024-03-17T23:12:28;18.20;;;12.80;;
51724;SDS011;37801;53.224;6.552;2024-03-17T23:14:55;16.83;;;12.25;;
51724;SDS011;37801;53.224;6.552;2024-03-17T23:17:36;18.58;;;12.98;;
51724;SDS011;37801;53.224;6.552;2024-03-17T23:20:05;18.65;;;12.00;;
51724;SDS011;37801;53.224;6.552;2024-03-17T23:22:55;19.75;;;11.77;;
51724;SDS011;37801;53.224;6.552;2024-03-17T23:25:29;19.08;;;12.98;;
51724;SDS011;37801;53.224;6.552;2024-03-17T23:28:09;18.75;;;12.55;;
51724;SDS011;37801;53.224;6.552;2024-03-17T23:34:00;15.77;;;11.77;;
51724;SDS011;37801;53.224;6.552;2024-03-17T23:47:10;19.45;;;12.68;;
51724;SDS011;37801;53.224;6.552;2024-03-17T23:49:50;23.52;;;13.68;;
51724;SDS011;37801;53.224;6.552;2024-03-17T23:52:39;21.83;;;13.45;;
51724;SDS011;37801;53.224;6.552;2024-03-17T23:58:23;19.20;;;13.13;;
